Time;durP1;ratioP1;P1;durP2;ratioP2;P2;SDS_P1;SDS_P2;PMS_P1;PMS_P2;Temp;Humidity;BMP_temperature;BMP_pressure;BME280_temperature;BME280_humidity;BME280_pressure;Samples;Min_cycle;Max_cycle;Signal;HPM_P1;HPM_P2
2021/04/24 00:00:38;;;;;;;16.63;11.68;;;13.10;98.90;;;;;;4917434;29;20061;-72
2021/04/24 00:03:05;;;;;;;15.65;12.07;;;13.00;98.90;;;;;;4900703;29;20397;-72
2021/04/24 00:05:42;;;;;;;16.98;11.43;;;13.10;99.10;;;;;;4917761;29;20020;-72
2021/04/24 00:08:10;;;;;;;17.80;12.05;;;13.00;99.10;;;;;;4917433;29;20163;-72
2021/04/24 00:10:39;;;;;;;20.35;11.57;;;13.00;99.20;;;;;;4917672;29;20039;-72
2021/04/24 00:13:06;;;;;;;20.70;11.20;;;13.00;99.30;;;;;;4917530;29;20032;-72
2021/04/24 00:15:34;;;;;;;18.65;11.85;;;12.90;99.30;;;;;;4900554;29;20035;-72
2021/04/24 00:18:00;;;;;;;16.88;11.45;;;12.90;99.50;;;;;;4917154;29;20056;-72
2021/04/24 00:20:26;;;;;;;18.48;11.80;;;12.90;99.60;;;;;;4917373;29;20032;-72
2021/04/24 00:22:53;;;;;;;21.08;11.90;;;12.90;99.80;;;;;;4917326;29;20032;-72
2021/04/24 00:25:20;;;;;;;18.02;11.18;;;12.90;99.80;;;;;;4917179;29;20353;-72
2021/04/24 00:27:46;;;;;;;22.35;12.30;;;12.90;99.80;;;;;;4917068;29;20111;-72
2021/04/24 00:30:13;;;;;;;16.25;11.43;;;12.90;99.70;;;;;;4900321;29;20123;-72
2021/04/24 00:32:39;;;;;;;22.60;12.88;;;12.90;99.80;;;;;;4916980;29;20036;-72
2021/04/24 00:35:06;;;;;;;19.85;12.25;;;12.90;99.90;;;;;;4916989;29;20028;-72
2021/04/24 00:37:32;;;;;;;17.23;12.35;;;12.90;99.80;;;;;;4917098;29;20374;-72
2021/04/24 00:39:58;;;;;;;20.55;12.98;;;12.90;99.90;;;;;;4899804;29;20087;-72
2021/04/24 00:42:24;;;;;;;19.83;12.27;;;12.90;99.90;;;;;;4916922;29;20031;-72
2021/04/24 00:44:51;;;;;;;17.00;11.68;;;12.90;99.90;;;;;;4916970;29;20396;-72
2021/04/24 00:47:18;;;;;;;19.83;12.48;;;12.90;99.90;;;;;;4916738;29;20051;-72
2021/04/24 00:49:45;;;;;;;16.90;11.95;;;12.80;99.90;;;;;;4916606;29;20087;-72
2021/04/24 00:52:11;;;;;;;17.38;12.40;;;12.80;99.90;;;;;;4899824;29;20040;-72
2021/04/24 00:54:37;;;;;;;20.15;12.38;;;12.80;99.90;;;;;;4915886;29;20028;-72
2021/04/24 00:57:03;;;;;;;20.27;12.68;;;12.80;99.90;;;;;;4916475;29;20189;-72
2021/04/24 00:59:30;;;;;;;16.95;12.05;;;12.70;99.90;;;;;;4916608;29;20488;-73
2021/04/24 01:01:56;;;;;;;18.70;12.73;;;12.60;99.90;;;;;;4899534;29;20114;-72
2021/04/24 01:04:22;;;;;;;22.83;12.73;;;12.60;99.90;;;;;;4916438;29;20079;-72
2021/04/24 01:06:49;;;;;;;20.35;13.15;;;12.60;99.90;;;;;;4916327;29;20032;-72
2021/04/24 01:09:15;;;;;;;17.80;12.20;;;12.60;99.90;;;;;;4916532;29;20429;-72
2021/04/24 01:11:41;;;;;;;18.40;12.05;;;12.60;99.90;;;;;;4916221;29;20469;-72
2021/04/24 01:14:07;;;;;;;20.00;12.77;;;12.60;99.90;;;;;;4916215;29;20035;-72
2021/04/24 01:16:32;;;;;;;16.30;11.52;;;12.60;99.90;;;;;;4916342;29;20063;-72
2021/04/24 01:18:58;;;;;;;16.63;11.43;;;12.60;99.90;;;;;;4914876;29;20033;-72
2021/04/24 01:21:27;;;;;;;16.52;11.85;;;12.70;99.90;;;;;;4899148;29;20064;-72
2021/04/24 01:23:54;;;;;;;21.17;12.45;;;12.70;99.90;;;;;;4899221;29;20368;-72
2021/04/24 01:26:20;;;;;;;19.13;12.27;;;12.70;99.90;;;;;;4916278;29;20412;-72
2021/04/24 01:28:46;;;;;;;20.95;12.65;;;12.60;99.90;;;;;;4916055;29;20037;-72
2021/04/24 01:31:14;;;;;;;18.85;12.50;;;12.60;99.90;;;;;;4916121;29;20039;-72
2021/04/24 01:33:40;;;;;;;17.38;11.63;;;12.70;99.90;;;;;;4916139;29;20396;-72
2021/04/24 01:36:06;;;;;;;22.23;12.68;;;12.60;99.90;;;;;;4915907;29;20032;-72
2021/04/24 01:38:32;;;;;;;25.48;12.95;;;12.60;99.90;;;;;;4898691;29;20031;-72
2021/04/24 01:41:00;;;;;;;18.98;12.00;;;12.60;99.90;;;;;;4915903;29;20490;-72
2021/04/24 01:43:26;;;;;;;20.42;13.52;;;12.50;99.90;;;;;;4898798;29;20027;-72
2021/04/24 01:45:52;;;;;;;16.50;11.65;;;12.50;99.90;;;;;;4898679;29;20028;-72
2021/04/24 01:48:18;;;;;;;21.00;13.35;;;12.50;99.90;;;;;;4915728;29;20123;-72
2021/04/24 01:50:46;;;;;;;18.33;12.05;;;12.50;99.90;;;;;;4898730;29;20484;-72
2021/04/24 01:53:16;;;;;;;20.65;12.60;;;12.50;99.90;;;;;;4898425;29;20032;-73
2021/04/24 01:55:42;;;;;;;19.30;13.68;;;12.50;99.90;;;;;;4915420;29;20218;-72
2021/04/24 01:58:10;;;;;;;17.10;11.98;;;12.60;99.90;;;;;;4898499;29;20481;-72
2021/04/24 02:00:43;;;;;;;19.00;12.25;;;12.60;99.90;;;;;;4915565;29;20175;-72
2021/04/24 02:03:14;;;;;;;19.38;12.90;;;12.60;99.90;;;;;;4915624;29;20424;-72
2021/04/24 02:05:41;;;;;;;20.55;13.38;;;12.50;99.90;;;;;;4915175;29;20031;-72
2021/04/24 02:08:13;;;;;;;20.70;12.18;;;12.50;99.90;;;;;;4915599;29;20034;-72
2021/04/24 02:10:41;;;;;;;20.60;12.23;;;12.50;99.90;;;;;;4898230;29;20163;-72
2021/04/24 02:13:14;;;;;;;17.05;12.27;;;12.50;99.90;;;;;;4915377;29;20040;-72
2021/04/24 02:15:40;;;;;;;22.33;12.95;;;12.50;99.90;;;;;;4915438;29;20496;-72
2021/04/24 02:18:06;;;;;;;20.17;12.88;;;12.50;99.90;;;;;;4915176;29;20092;-73
2021/04/24 02:20:33;;;;;;;19.45;12.38;;;12.50;99.90;;;;;;4915325;29;20449;-72
2021/04/24 02:22:59;;;;;;;18.80;12.35;;;12.50;99.90;;;;;;4898390;29;20032;-72
2021/04/24 02:25:25;;;;;;;18.50;13.05;;;12.50;99.90;;;;;;4898218;29;20035;-72
2021/04/24 02:27:51;;;;;;;22.70;13.75;;;12.40;99.90;;;;;;4915188;29;20024;-72
2021/04/24 02:30:19;;;;;;;23.98;13.45;;;12.40;99.90;;;;;;4915084;29;20032;-72
2021/04/24 02:32:46;;;;;;;22.05;13.10;;;12.40;99.90;;;;;;4915080;29;20350;-73
2021/04/24 02:35:18;;;;;;;20.83;13.02;;;12.40;99.90;;;;;;4898129;29;20115;-72
2021/04/24 02:37:44;;;;;;;17.02;12.38;;;12.40;99.90;;;;;;4914883;29;20059;-72
2021/04/24 02:40:14;;;;;;;19.63;12.43;;;12.40;99.90;;;;;;4915125;29;20028;-72
2021/04/24 02:42:40;;;;;;;22.77;12.98;;;12.40;99.90;;;;;;4915249;29;20035;-72
2021/04/24 02:45:08;;;;;;;21.90;12.80;;;12.40;99.90;;;;;;4898022;29;20025;-72
2021/04/24 02:47:34;;;;;;;19.88;12.18;;;12.30;99.90;;;;;;4894515;29;20041;-73
2021/04/24 02:50:01;;;;;;;20.15;13.57;;;12.30;99.90;;;;;;4897354;29;20037;-72
2021/04/24 02:52:27;;;;;;;21.42;13.30;;;12.30;99.90;;;;;;4898346;29;20028;-72
2021/04/24 02:54:54;;;;;;;18.65;12.57;;;12.40;99.90;;;;;;4914992;29;20431;-72
2021/04/24 02:57:20;;;;;;;17.40;12.40;;;12.30;99.90;;;;;;4914973;29;20032;-72
2021/04/24 02:59:45;;;;;;;22.55;14.48;;;12.30;99.90;;;;;;4914855;29;20482;-72
2021/04/24 03:02:11;;;;;;;21.17;14.30;;;12.30;99.90;;;;;;4914930;29;20032;-72
2021/04/24 03:04:37;;;;;;;24.27;14.02;;;12.40;99.90;;;;;;4914930;29;20152;-72
2021/04/24 03:07:03;;;;;;;24.52;14.02;;;12.40;99.90;;;;;;4896712;29;20516;-72
2021/04/24 03:09:28;;;;;;;20.85;13.95;;;12.50;99.90;;;;;;4897745;29;20020;-72
2021/04/24 03:11:54;;;;;;;22.33;14.20;;;12.30;99.90;;;;;;4896112;29;20116;-72
2021/04/24 03:14:20;;;;;;;20.15;13.90;;;12.20;99.90;;;;;;4895884;29;20021;-72
2021/04/24 03:16:45;;;;;;;19.58;13.63;;;12.20;99.90;;;;;;4895861;29;20033;-72
2021/04/24 03:19:11;;;;;;;20.60;14.13;;;12.20;99.90;;;;;;4900764;29;20020;-72
2021/04/24 03:21:37;;;;;;;24.65;13.82;;;12.10;99.90;;;;;;4918183;29;20032;-72
2021/04/24 03:24:04;;;;;;;18.17;13.05;;;12.10;99.90;;;;;;4918301;29;20032;-72
2021/04/24 03:26:30;;;;;;;30.50;15.07;;;12.10;99.90;;;;;;4918227;29;20024;-72
2021/04/24 03:28:56;;;;;;;20.23;13.50;;;12.10;99.90;;;;;;4901326;29;20028;-72
2021/04/24 03:31:22;;;;;;;21.20;13.57;;;12.10;99.90;;;;;;4918053;29;20032;-72
2021/04/24 03:33:48;;;;;;;22.75;14.43;;;12.10;99.90;;;;;;4918267;29;20028;-72
2021/04/24 03:36:14;;;;;;;21.45;14.07;;;12.10;99.90;;;;;;4901065;29;20429;-72
2021/04/24 03:38:40;;;;;;;23.55;14.50;;;12.10;99.90;;;;;;4918027;29;20062;-72
2021/04/24 03:41:07;;;;;;;23.38;14.52;;;12.10;99.90;;;;;;4918043;29;20071;-73
2021/04/24 03:43:33;;;;;;;21.67;13.95;;;12.10;99.90;;;;;;4900858;29;20025;-72
2021/04/24 03:45:59;;;;;;;20.00;13.55;;;12.10;99.90;;;;;;4917803;29;20024;-73
2021/04/24 03:48:25;;;;;;;26.48;14.35;;;12.10;99.90;;;;;;4917723;29;20437;-72
2021/04/24 03:50:51;;;;;;;20.85;14.02;;;12.10;99.90;;;;;;4917890;29;20036;-72
2021/04/24 03:53:16;;;;;;;20.25;13.88;;;12.20;99.90;;;;;;4917839;29;20068;-72
2021/04/24 03:55:42;;;;;;;24.65;15.10;;;12.20;99.90;;;;;;4917842;29;20496;-72
2021/04/24 03:58:08;;;;;;;22.95;13.60;;;12.10;99.90;;;;;;4900707;29;20036;-72
2021/04/24 04:00:34;;;;;;;25.35;14.38;;;12.10;99.90;;;;;;4900631;29;20036;-72
2021/04/24 04:03:02;;;;;;;26.98;15.32;;;12.10;99.90;;;;;;4917811;29;20392;-72
2021/04/24 04:05:40;;;;;;;25.90;14.65;;;12.00;99.90;;;;;;4917504;29;20107;-72
2021/04/24 04:08:08;;;;;;;28.85;14.57;;;12.00;99.90;;;;;;4917574;29;20028;-72
2021/04/24 04:10:35;;;;;;;23.08;13.93;;;12.00;99.90;;;;;;4917519;29;20111;-72
2021/04/24 04:13:03;;;;;;;22.02;14.38;;;12.00;99.90;;;;;;4917452;29;20032;-72
2021/04/24 04:15:30;;;;;;;27.10;14.30;;;11.90;99.90;;;;;;4900401;29;20123;-72
2021/04/24 04:18:07;;;;;;;21.58;14.70;;;11.90;99.90;;;;;;4917412;29;20217;-72
2021/04/24 04:20:39;;;;;;;20.80;14.75;;;11.90;99.90;;;;;;4917180;29;20059;-72
2021/04/24 04:23:05;;;;;;;21.85;14.65;;;11.90;99.90;;;;;;4917375;29;20484;-72
2021/04/24 04:25:31;;;;;;;21.52;14.68;;;11.90;99.90;;;;;;4917137;29;20028;-72
2021/04/24 04:27:57;;;;;;;25.35;14.90;;;12.00;99.90;;;;;;4900285;29;20480;-72
2021/04/24 04:30:24;;;;;;;24.23;14.43;;;12.00;99.90;;;;;;4916922;29;20028;-72
2021/04/24 04:32:50;;;;;;;21.35;13.82;;;12.00;99.90;;;;;;4917080;29;20032;-72
2021/04/24 04:35:17;;;;;;;21.75;14.65;;;12.00;99.90;;;;;;4900116;29;20095;-72
2021/04/24 04:37:43;;;;;;;25.80;14.60;;;12.00;99.90;;;;;;4917094;29;20024;-72
2021/04/24 04:40:11;;;;;;;25.15;15.63;;;12.00;99.90;;;;;;4916808;29;20024;-72
2021/04/24 04:42:37;;;;;;;23.25;13.93;;;12.00;99.90;;;;;;4899951;29;20036;-72
2021/04/24 04:45:04;;;;;;;24.27;15.60;;;12.00;99.90;;;;;;4917022;29;20036;-72
2021/04/24 04:47:30;;;;;;;23.92;15.52;;;11.90;99.90;;;;;;4899856;29;20087;-72
2021/04/24 04:49:56;;;;;;;25.67;15.05;;;12.00;99.90;;;;;;4916670;29;20440;-72
2021/04/24 04:52:21;;;;;;;24.55;15.20;;;12.00;99.90;;;;;;4916912;29;20028;-72
2021/04/24 04:54:47;;;;;;;25.65;14.60;;;11.90;99.90;;;;;;4899877;29;20032;-72
2021/04/24 04:57:13;;;;;;;21.60;14.23;;;11.90;99.90;;;;;;4899661;29;20039;-72
2021/04/24 04:59:38;;;;;;;23.30;14.40;;;11.90;99.90;;;;;;4916728;29;20021;-72
2021/04/24 05:02:04;;;;;;;24.13;15.57;;;11.90;99.90;;;;;;4899139;29;20107;-72
2021/04/24 05:04:30;;;;;;;23.40;15.95;;;11.90;99.90;;;;;;4897414;29;20033;-72
2021/04/24 05:06:55;;;;;;;23.00;15.40;;;11.90;99.90;;;;;;4880949;29;20052;-72
2021/04/24 05:09:22;;;;;;;22.15;15.02;;;12.00;99.90;;;;;;4880530;29;20040;-72
2021/04/24 05:11:49;;;;;;;22.52;15.35;;;12.00;99.90;;;;;;4897508;29;20065;-73
2021/04/24 05:14:16;;;;;;;23.27;14.20;;;12.00;99.90;;;;;;4897275;29;20552;-72
2021/04/24 05:16:42;;;;;;;24.23;14.73;;;12.10;99.90;;;;;;4897573;29;20041;-72
2021/04/24 05:19:07;;;;;;;23.15;14.95;;;12.10;99.90;;;;;;4900439;29;20040;-72
2021/04/24 05:21:34;;;;;;;24.83;15.27;;;12.20;99.90;;;;;;4916253;29;20036;-72
2021/04/24 05:24:01;;;;;;;21.80;14.23;;;12.20;99.90;;;;;;4899032;29;20036;-73
2021/04/24 05:26:26;;;;;;;22.88;14.10;;;12.20;99.90;;;;;;4899191;29;20646;-72
2021/04/24 05:28:52;;;;;;;23.30;13.73;;;12.30;99.90;;;;;;4916747;29;20024;-72
2021/04/24 05:31:18;;;;;;;20.95;13.73;;;12.30;99.90;;;;;;4916202;29;20031;-72
2021/04/24 05:33:43;;;;;;;20.50;14.80;;;12.30;99.90;;;;;;4916426;29;20028;-72
2021/04/24 05:36:12;;;;;;;24.90;15.38;;;12.40;99.90;;;;;;4916770;29;20035;-73
2021/04/24 05:38:38;;;;;;;23.13;15.25;;;12.40;99.90;;;;;;4899926;29;20101;-73
2021/04/24 05:41:05;;;;;;;24.92;14.60;;;12.50;99.90;;;;;;4899334;29;20032;-72
2021/04/24 05:43:31;;;;;;;25.45;14.52;;;12.60;99.90;;;;;;4917122;29;20107;-73
2021/04/24 05:45:57;;;;;;;20.67;13.80;;;12.60;99.90;;;;;;4898775;29;20107;-72
2021/04/24 05:48:22;;;;;;;24.77;14.75;;;12.70;99.90;;;;;;4916033;29;20591;-72
2021/04/24 05:50:48;;;;;;;25.15;13.95;;;12.70;99.90;;;;;;4915688;29;20067;-72
2021/04/24 05:53:14;;;;;;;22.75;15.10;;;12.80;99.90;;;;;;4916580;29;20459;-73
2021/04/24 05:55:40;;;;;;;19.45;13.55;;;12.80;99.90;;;;;;4916345;29;20051;-72
2021/04/24 05:58:05;;;;;;;22.13;13.68;;;12.80;99.90;;;;;;4916743;29;20024;-73
2021/04/24 06:00:31;;;;;;;25.83;14.95;;;12.90;99.90;;;;;;4899849;29;20072;-73
2021/04/24 06:02:57;;;;;;;23.40;14.18;;;13.00;99.90;;;;;;4916507;29;20024;-73
2021/04/24 06:05:23;;;;;;;20.23;13.98;;;13.10;99.90;;;;;;4916531;29;20032;-73
2021/04/24 06:07:48;;;;;;;22.70;14.82;;;13.20;99.90;;;;;;4916550;29;20024;-73
2021/04/24 06:10:17;;;;;;;27.35;14.75;;;13.20;99.90;;;;;;4899194;29;20496;-73
2021/04/24 06:12:47;;;;;;;25.25;15.23;;;13.40;99.90;;;;;;4916272;29;20035;-73
2021/04/24 06:15:14;;;;;;;25.67;15.00;;;13.50;99.90;;;;;;4899139;29;20378;-72
2021/04/24 06:17:41;;;;;;;19.63;13.05;;;13.50;99.90;;;;;;4915489;29;20563;-73
2021/04/24 06:20:09;;;;;;;24.13;14.07;;;13.60;99.90;;;;;;4915420;29;20024;-73
2021/04/24 06:22:36;;;;;;;23.65;14.32;;;13.70;99.90;;;;;;4915085;29;20043;-73
2021/04/24 06:25:03;;;;;;;20.15;13.57;;;13.80;99.90;;;;;;4915529;29;20492;-73
2021/04/24 06:27:28;;;;;;;27.50;13.40;;;13.90;99.90;;;;;;4896877;29;20016;-73
2021/04/24 06:29:54;;;;;;;21.42;13.68;;;14.00;99.90;;;;;;4916395;29;20028;-73
2021/04/24 06:32:20;;;;;;;19.30;13.60;;;14.10;99.90;;;;;;4916223;29;20024;-73
2021/04/24 06:34:46;;;;;;;22.35;14.63;;;14.20;99.90;;;;;;4916410;29;20030;-73
2021/04/24 06:37:12;;;;;;;20.42;13.18;;;14.30;99.90;;;;;;4916391;29;20341;-73
2021/04/24 06:39:38;;;;;;;18.02;12.95;;;14.40;99.90;;;;;;4916450;29;20028;-73
2021/04/24 06:42:04;;;;;;;19.83;12.95;;;14.50;99.90;;;;;;4899390;29;20031;-73
2021/04/24 06:44:30;;;;;;;17.88;12.25;;;14.60;99.90;;;;;;4916128;29;20103;-73
2021/04/24 06:46:55;;;;;;;21.90;13.40;;;14.70;99.90;;;;;;4915941;29;20044;-72
2021/04/24 06:49:21;;;;;;;17.35;11.82;;;14.80;99.90;;;;;;4909733;29;20029;-73
2021/04/24 06:51:47;;;;;;;21.52;12.13;;;14.80;99.90;;;;;;4897520;29;20508;-79
2021/04/24 06:54:13;;;;;;;20.17;12.07;;;14.90;99.90;;;;;;4900914;29;20537;-79
2021/04/24 06:56:39;;;;;;;15.77;10.95;;;15.00;99.80;;;;;;4900531;29;20055;-78
2021/04/24 06:59:05;;;;;;;18.30;11.25;;;15.10;99.60;;;;;;4900699;29;20033;-79
2021/04/24 07:01:31;;;;;;;16.83;11.32;;;15.10;99.60;;;;;;4907518;29;20032;-79
2021/04/24 07:03:57;;;;;;;15.25;10.80;;;15.20;99.60;;;;;;4902681;29;20445;-79
2021/04/24 07:06:23;;;;;;;18.27;11.80;;;15.20;99.60;;;;;;4919515;29;20024;-78
2021/04/24 07:08:48;;;;;;;18.17;11.88;;;15.30;99.90;;;;;;4919882;29;20032;-79
2021/04/24 07:11:14;;;;;;;21.98;14.13;;;15.40;99.90;;;;;;4902952;29;20087;-78
2021/04/24 07:13:40;;;;;;;27.35;15.45;;;15.50;99.90;;;;;;4920020;29;20403;-79
2021/04/24 07:16:10;;;;;;;34.53;15.40;;;15.40;99.90;;;;;;4919534;29;20051;-79
2021/04/24 07:18:36;;;;;;;27.02;14.73;;;15.40;99.90;;;;;;4919652;29;20031;-78
2021/04/24 07:21:02;;;;;;;30.55;17.88;;;15.40;99.90;;;;;;4919394;29;20635;-78
2021/04/24 07:23:28;;;;;;;27.27;14.93;;;15.40;99.90;;;;;;4907173;29;20035;-78
2021/04/24 07:25:54;;;;;;;24.80;15.07;;;15.40;99.90;;;;;;4899920;29;20028;-79
2021/04/24 07:28:19;;;;;;;24.25;13.75;;;15.50;99.90;;;;;;4900068;29;20029;-79
2021/04/24 07:30:45;;;;;;;23.48;14.82;;;15.50;99.90;;;;;;4899430;29;20025;-78
2021/04/24 07:33:11;;;;;;;22.02;14.55;;;15.40;99.90;;;;;;4899441;29;20039;-78
2021/04/24 07:35:37;;;;;;;19.67;13.73;;;15.40;99.90;;;;;;4899428;29;20400;-78
2021/04/24 07:38:03;;;;;;;21.55;14.57;;;15.40;99.90;;;;;;4899201;29;20036;-78
2021/04/24 07:40:29;;;;;;;22.48;13.27;;;15.50;99.80;;;;;;4899357;29;20481;-78
2021/04/24 07:42:55;;;;;;;25.40;14.45;;;15.50;99.90;;;;;;4899197;29;20076;-78
2021/04/24 07:45:21;;;;;;;20.85;15.30;;;15.50;99.90;;;;;;4899193;29;20028;-78
2021/04/24 07:47:48;;;;;;;20.63;14.73;;;15.40;99.90;;;;;;4892396;29;20063;-73
2021/04/24 07:50:18;;;;;;;26.48;16.50;;;15.40;99.90;;;;;;4917963;29;20024;-73
2021/04/24 07:52:44;;;;;;;22.55;15.10;;;15.40;99.90;;;;;;4917819;29;20036;-73
2021/04/24 07:55:10;;;;;;;25.85;16.45;;;15.40;99.90;;;;;;4917461;29;20766;-73
2021/04/24 07:57:36;;;;;;;25.58;15.50;;;15.40;99.90;;;;;;4916240;29;20504;-73
2021/04/24 08:00:04;;;;;;;33.58;16.17;;;15.40;99.90;;;;;;4916942;29;20150;-73
2021/04/24 08:02:29;;;;;;;22.75;15.68;;;15.50;99.90;;;;;;4917762;29;20028;-73
2021/04/24 08:04:55;;;;;;;24.00;15.68;;;15.40;99.90;;;;;;4917253;29;20036;-73
2021/04/24 08:07:21;;;;;;;28.23;16.73;;;15.40;99.90;;;;;;4917717;29;20081;-72
2021/04/24 08:09:46;;;;;;;26.20;17.00;;;15.50;99.90;;;;;;4916405;29;20460;-72
2021/04/24 08:12:12;;;;;;;23.17;16.23;;;15.50;99.90;;;;;;4916342;29;20021;-73
2021/04/24 08:14:38;;;;;;;30.65;16.70;;;15.60;99.90;;;;;;4916441;29;20020;-73
2021/04/24 08:17:04;;;;;;;28.77;16.95;;;15.60;99.90;;;;;;4917428;29;20511;-73
2021/04/24 08:19:31;;;;;;;28.05;16.65;;;15.60;99.90;;;;;;4917642;29;20443;-73
2021/04/24 08:21:57;;;;;;;25.33;15.55;;;15.70;99.90;;;;;;4917519;29;20034;-73
2021/04/24 08:24:23;;;;;;;25.60;15.85;;;15.80;99.80;;;;;;4917659;29;20028;-73
2021/04/24 08:26:48;;;;;;;27.75;16.25;;;15.80;99.90;;;;;;4917424;29;20031;-73
2021/04/24 08:29:14;;;;;;;24.58;16.25;;;15.90;99.90;;;;;;4917701;29;20028;-73
2021/04/24 08:31:42;;;;;;;20.83;15.32;;;16.00;99.90;;;;;;4900783;29;20032;-73
2021/04/24 08:34:08;;;;;;;15.13;9.95;;;16.00;99.20;;;;;;4917745;29;20021;-73
2021/04/24 08:36:34;;;;;;;13.43;9.52;;;16.10;98.50;;;;;;4917804;29;20395;-73
2021/04/24 08:39:03;;;;;;;25.55;14.48;;;16.10;98.90;;;;;;4917798;29;20024;-73
2021/04/24 08:41:35;;;;;;;25.75;14.25;;;16.20;99.50;;;;;;4918123;29;20032;-72
2021/04/24 08:44:00;;;;;;;26.83;14.10;;;16.20;98.70;;;;;;4900287;29;20016;-75
2021/04/24 08:46:27;;;;;;;21.58;14.52;;;16.20;98.70;;;;;;4916885;29;20408;-75
2021/04/24 08:48:57;;;;;;;30.20;17.55;;;16.30;98.90;;;;;;4917002;29;20088;-75
2021/04/24 08:51:25;;;;;;;22.90;14.15;;;16.20;98.90;;;;;;4916962;29;20036;-75
2021/04/24 08:53:51;;;;;;;26.90;15.90;;;16.20;98.10;;;;;;4916813;29;20083;-75
2021/04/24 08:56:25;;;;;;;25.98;16.25;;;16.30;98.10;;;;;;4916872;29;20027;-75
2021/04/24 08:58:59;;;;;;;28.05;15.88;;;16.30;98.20;;;;;;4916742;29;20065;-75
2021/04/24 09:01:26;;;;;;;31.55;15.18;;;16.30;98.60;;;;;;4918660;29;20487;-75
2021/04/24 09:03:52;;;;;;;22.92;15.25;;;16.40;98.20;;;;;;4899557;29;20515;-75
2021/04/24 09:06:21;;;;;;;32.75;15.20;;;16.50;99.00;;;;;;4916526;29;20309;-75
2021/04/24 09:09:04;;;;;;;29.48;17.08;;;16.60;99.20;;;;;;4916655;29;20024;-75
2021/04/24 09:11:42;;;;;;;27.02;15.80;;;16.40;98.50;;;;;;4916034;29;20036;-75
2021/04/24 09:14:10;;;;;;;31.95;16.35;;;16.50;99.40;;;;;;4916323;29;20083;-75
2021/04/24 09:16:39;;;;;;;24.88;14.38;;;16.50;98.30;;;;;;4914819;29;20043;-75
2021/04/24 09:19:27;;;;;;;21.52;15.40;;;16.50;97.90;;;;;;4915743;29;20039;-75
2021/04/24 09:22:22;;;;;;;32.05;15.98;;;16.50;98.90;;;;;;4913832;29;20032;-75
2021/04/24 09:24:54;;;;;;;20.77;14.43;;;16.60;99.20;;;;;;4916404;29;20119;-75
2021/04/24 09:27:41;;;;;;;25.65;14.48;;;16.60;97.90;;;;;;4916841;29;20020;-75
2021/04/24 09:30:28;;;;;;;28.25;15.25;;;16.70;98.50;;;;;;4900347;29;20424;-76
2021/04/24 09:33:01;;;;;;;21.73;13.10;;;16.80;97.70;;;;;;4916988;29;20036;-74
2021/04/24 09:35:27;;;;;;;22.25;13.45;;;16.90;97.60;;;;;;4917292;29;20059;-75
2021/04/24 09:38:00;;;;;;;23.38;12.85;;;16.90;96.80;;;;;;4917201;29;20070;-75
2021/04/24 09:40:26;;;;;;;19.17;10.88;;;17.00;96.70;;;;;;4918318;29;20024;-75
2021/04/24 09:42:59;;;;;;;11.85;8.63;;;17.10;96.30;;;;;;4928745;29;20043;-75
2021/04/24 09:45:31;;;;;;;12.73;8.85;;;17.20;92.40;;;;;;4924968;29;20059;-75
2021/04/24 09:47:57;;;;;;;14.25;8.90;;;17.20;90.20;;;;;;4931273;29;20069;-75
2021/04/24 09:50:30;;;;;;;15.07;9.80;;;17.20;91.80;;;;;;4923411;29;20024;-75
2021/04/24 09:53:17;;;;;;;12.40;9.65;;;17.20;92.20;;;;;;4935766;29;20027;-74
2021/04/24 09:55:43;;;;;;;14.02;10.82;;;17.30;91.20;;;;;;4903325;29;20115;-75
2021/04/24 09:58:27;;;;;;;14.25;9.60;;;17.30;91.10;;;;;;4928180;29;20064;-74
2021/04/24 10:00:53;;;;;;;15.57;10.77;;;17.40;91.10;;;;;;4932658;29;20061;-75
2021/04/24 10:03:39;;;;;;;17.58;12.27;;;17.40;91.70;;;;;;4918658;29;20034;-75
2021/04/24 10:06:23;;;;;;;12.68;10.13;;;17.50;92.60;;;;;;4935993;29;20023;-75
2021/04/24 10:09:07;;;;;;;12.57;9.07;;;17.50;91.70;;;;;;4932345;29;20482;-75
2021/04/24 10:11:34;;;;;;;13.40;8.63;;;17.60;91.00;;;;;;4928657;29;20032;-75
2021/04/24 10:14:00;;;;;;;15.15;9.60;;;17.60;90.60;;;;;;4934308;29;20028;-75
2021/04/24 10:16:39;;;;;;;12.38;9.13;;;17.70;91.80;;;;;;4902070;29;20024;-75
2021/04/24 10:19:07;;;;;;;14.88;11.00;;;17.70;91.40;;;;;;4916755;29;20046;-75
2021/04/24 10:21:34;;;;;;;15.45;9.88;;;17.70;91.10;;;;;;4920419;29;20078;-76
2021/04/24 10:24:01;;;;;;;16.70;10.15;;;17.80;91.00;;;;;;4923625;29;20059;-76
2021/04/24 10:26:28;;;;;;;14.60;9.10;;;17.90;91.10;;;;;;4903027;29;20528;-76
2021/04/24 10:29:00;;;;;;;11.45;10.02;;;18.00;91.30;;;;;;4922656;29;20388;-77
2021/04/24 10:31:27;;;;;;;17.50;11.00;;;18.20;90.40;;;;;;4919075;29;20484;-76
2021/04/24 10:33:59;;;;;;;15.38;8.90;;;18.20;90.20;;;;;;4923117;29;20072;-77
2021/04/24 10:36:25;;;;;;;16.60;8.70;;;18.10;89.30;;;;;;4917790;29;20024;-75
2021/04/24 10:38:53;;;;;;;15.82;10.05;;;18.30;90.40;;;;;;4906844;29;20036;-75
2021/04/24 10:41:33;;;;;;;15.50;10.32;;;18.30;91.20;;;;;;4923277;29;20026;-77
2021/04/24 10:44:08;;;;;;;16.27;9.70;;;18.50;90.60;;;;;;4923921;29;20020;-79
2021/04/24 10:46:36;;;;;;;18.08;11.40;;;18.70;90.30;;;;;;4925042;29;20036;-79
2021/04/24 10:49:34;;;;;;;21.33;11.73;;;18.90;89.60;;;;;;4904974;29;20028;-78
2021/04/24 10:52:07;;;;;;;21.45;11.45;;;19.10;89.30;;;;;;4881423;29;20096;-80
2021/04/24 10:54:40;;;;;;;15.40;11.68;;;19.30;89.30;;;;;;4905939;29;20085;-75
2021/04/24 10:57:36;;;;;;;19.73;12.82;;;19.50;89.80;;;;;;4921217;29;20032;-76
2021/04/24 11:00:03;;;;;;;17.70;12.35;;;19.40;86.70;;;;;;4920507;29;20031;-76
2021/04/24 11:02:45;;;;;;;17.75;11.50;;;19.40;87.10;;;;;;4918401;29;20020;-76
2021/04/24 11:05:26;;;;;;;;;;;19.60;85.10;;;;;;4909971;29;20032;-77
2021/04/24 11:08:22;;;;;;;16.23;11.43;;;19.60;83.00;;;;;;4921174;29;19907;-78
2021/04/24 11:11:01;;;;;;;19.08;11.63;;;19.70;83.40;;;;;;4911885;29;20021;-79
2021/04/24 11:13:30;;;;;;;16.75;11.93;;;19.80;83.70;;;;;;4897007;29;20370;-79
2021/04/24 11:15:56;;;;;;;16.00;10.95;;;20.00;83.90;;;;;;4919904;29;20041;-79
2021/04/24 11:18:23;;;;;;;17.15;10.65;;;20.20;85.00;;;;;;4913545;29;20032;-79
2021/04/24 11:21:04;;;;;;;16.30;11.23;;;20.10;82.50;;;;;;4917644;29;20024;-80
2021/04/24 11:23:29;;;;;;;19.85;10.18;;;20.10;81.70;;;;;;4923754;29;20043;-79
2021/04/24 11:25:58;;;;;;;16.55;10.10;;;20.00;81.30;;;;;;4904079;29;20483;-80
2021/04/24 11:28:25;;;;;;;12.40;8.85;;;19.90;81.10;;;;;;4914818;29;20068;-79
2021/04/24 11:31:00;;;;;;;16.80;9.40;;;19.70;80.00;;;;;;4922161;29;20031;-78
2021/04/24 11:33:34;;;;;;;14.02;8.95;;;19.70;79.60;;;;;;4921866;29;20582;-79
2021/04/24 11:36:29;;;;;;;12.88;10.00;;;19.60;75.00;;;;;;4926722;29;20667;-79
2021/04/24 11:39:00;;;;;;;17.67;10.52;;;19.50;75.30;;;;;;4912933;29;20028;-78
2021/04/24 11:41:43;;;;;;;13.77;10.43;;;19.50;78.00;;;;;;4917182;29;20061;-79
2021/04/24 11:44:08;;;;;;;;;;;19.50;80.10;;;;;;4917402;29;20037;-79
2021/04/24 11:46:39;;;;;;;18.23;10.55;;;19.60;82.10;;;;;;4916734;29;19918;-79
2021/04/24 11:49:15;;;;;;;15.13;10.57;;;19.60;78.10;;;;;;4916687;29;20441;-79
2021/04/24 11:51:43;;;;;;;16.73;10.20;;;19.60;77.50;;;;;;4899567;29;20111;-79
2021/04/24 11:54:32;;;;;;;16.20;9.75;;;19.80;77.80;;;;;;4922140;29;20040;-79
2021/04/24 11:56:59;;;;;;;15.18;11.63;;;20.00;76.90;;;;;;4907508;29;20031;-79
2021/04/24 11:59:30;;;;;;;12.85;9.55;;;20.00;73.40;;;;;;4916595;29;20058;-79
2021/04/24 12:02:02;;;;;;;14.00;8.25;;;20.00;73.40;;;;;;4917119;29;20043;-80
2021/04/24 12:04:32;;;;;;;;;;;20.00;74.00;;;;;;4918574;29;20051;-79
2021/04/24 12:07:06;;;;;;;12.65;9.75;;;20.00;73.10;;;;;;4931742;29;19921;-78
2021/04/24 12:09:54;;;;;;;12.70;9.63;;;20.00;72.10;;;;;;4921092;29;20047;-79
2021/04/24 12:12:34;;;;;;;13.10;8.75;;;20.00;72.60;;;;;;4934744;29;20668;-79
2021/04/24 12:15:09;;;;;;;13.13;8.93;;;20.00;74.20;;;;;;4935205;29;20043;-80
2021/04/24 12:17:56;;;;;;;13.98;9.57;;;20.00;72.10;;;;;;4925401;29;20035;-79
2021/04/24 12:20:26;;;;;;;13.45;9.13;;;20.10;74.20;;;;;;4919324;29;20099;-79
2021/04/24 12:22:53;;;;;;;12.35;8.77;;;20.50;73.20;;;;;;4917455;29;20563;-79
2021/04/24 12:25:21;;;;;;;15.18;9.98;;;20.80;71.60;;;;;;4929718;29;20059;-79
2021/04/24 12:27:52;;;;;;;12.75;8.50;;;21.00;70.70;;;;;;4935452;29;20032;-79
2021/04/24 12:30:29;;;;;;;14.35;9.93;;;21.20;69.80;;;;;;4935121;29;20678;-79
2021/04/24 12:33:04;;;;;;;14.25;9.50;;;21.10;67.10;;;;;;4935203;29;20032;-79
2021/04/24 12:35:35;;;;;;;13.10;9.10;;;21.00;67.20;;;;;;4934650;29;20028;-79